createdAt,value
2017-06-04T00:00:05.241Z,48.25
2017-06-04T00:01:05.241Z,48.73
2017-06-04T00:02:05.246Z,48.25
2017-06-04T00:03:04.943Z,48.44
2017-06-04T00:04:05.269Z,48.73
2017-06-04T00:05:04.962Z,49.02
2017-06-04T00:06:05.282Z,48.64
2017-06-04T00:07:04.978Z,48.83
2017-06-04T00:08:05.296Z,48.93
2017-06-04T00:09:04.998Z,48.44
2017-06-04T00:10:05.319Z,48.93
2017-06-04T00:11:05.328Z,49.51
2017-06-04T00:12:05.334Z,49.41
2017-06-04T00:13:05.035Z,49.19
2017-06-04T00:14:05.045Z,48.83
2017-06-04T00:15:05.052Z,48.44
2017-06-04T00:16:05.376Z,48.83
2017-06-04T00:18:05.394Z,49.61
2017-06-04T00:19:05.396Z,49.12
2017-06-04T00:20:05.403Z,49
2017-06-04T00:21:05.103Z,49.32
2017-06-04T00:22:05.423Z,49.41
2017-06-04T00:23:05.434Z,48.83
2017-06-04T00:24:05.491Z,49.41
2017-06-04T00:25:05.141Z,48.73
2017-06-04T00:26:05.460Z,48.73
2017-06-04T00:27:05.467Z,49.41
2017-06-04T00:28:05.475Z,49.12
2017-06-04T00:29:05.536Z,49.41
2017-06-04T00:30:05.182Z,49.22
2017-06-04T00:31:05.504Z,49.12
2017-06-04T00:32:05.513Z,49.12
2017-06-04T00:33:05.547Z,49.12
2017-06-04T00:34:05.528Z,49.12
2017-06-04T00:35:05.544Z,49.32
2017-06-04T00:36:05.550Z,49.41
2017-06-04T00:37:05.558Z,49.8
2017-06-04T00:38:05.614Z,49.22
2017-06-04T00:39:05.268Z,49.12
2017-06-04T00:40:05.586Z,49.99
2017-06-04T00:41:05.590Z,49.61
2017-06-04T00:42:05.601Z,49.87
2017-06-04T00:43:05.610Z,49.19
2017-06-04T00:44:05.310Z,49.22
2017-06-04T00:45:05.677Z,48.93
2017-06-04T00:46:05.327Z,48.93
2017-06-04T00:47:05.335Z,49.32
2017-06-04T00:48:05.656Z,49.12
2017-06-04T00:49:05.354Z,49.61
2017-06-04T00:50:05.669Z,49.8
2017-06-04T00:51:05.682Z,49.22
2017-06-04T00:52:05.426Z,49.22
2017-06-04T00:53:05.701Z,49.12
2017-06-04T00:54:05.739Z,50.38
2017-06-04T00:55:05.714Z,50.16
2017-06-04T00:56:05.721Z,50.26
2017-06-04T00:57:05.471Z,50.16
2017-06-04T00:58:05.741Z,49.68
2017-06-04T00:59:05.752Z,49.9
2017-06-04T01:00:05.758Z,49.8
2017-06-04T01:01:05.767Z,50.29
2017-06-04T01:02:05.464Z,50.07
2017-06-04T01:03:05.832Z,50.16
2017-06-04T01:04:05.789Z,50.16
2017-06-04T01:05:05.800Z,50.26
2017-06-04T01:06:05.500Z,50.07
2017-06-04T01:07:05.517Z,49.51
2017-06-04T01:08:05.824Z,49.99
2017-06-04T01:09:05.836Z,49.87
2017-06-04T01:10:05.842Z,49.99
2017-06-04T01:11:05.902Z,49.51
2017-06-04T01:12:05.867Z,49.71
2017-06-04T01:13:05.868Z,49.9
2017-06-04T01:14:05.564Z,49.61
2017-06-04T01:15:05.573Z,49.61
2017-06-04T01:16:05.894Z,49.51
2017-06-04T01:17:05.903Z,49.99
2017-06-04T01:18:05.912Z,49.8
2017-06-04T01:19:05.920Z,49.71
2017-06-04T01:20:05.930Z,49.9
2017-06-04T01:21:05.628Z,50.09
2017-06-04T01:22:05.997Z,49.9
2017-06-04T01:23:05.954Z,50.29
2017-06-04T01:24:05.964Z,50.26
2017-06-04T01:25:06.025Z,50.94
2017-06-04T01:26:05.978Z,51.4
2017-06-04T01:27:05.678Z,51.33
2017-06-04T01:28:06.000Z,51.23
2017-06-04T01:29:06.005Z,50.36
2017-06-04T01:30:06.012Z,50.16
2017-06-04T01:31:06.023Z,50.46
2017-06-04T01:32:06.065Z,50.46
2017-06-04T01:33:06.041Z,50.26
2017-06-04T01:34:06.050Z,50.16
2017-06-04T01:35:06.061Z,50.84
2017-06-04T01:36:06.118Z,50.36
2017-06-04T01:37:06.127Z,50.36
2017-06-04T01:38:06.083Z,51.33
2017-06-04T01:39:06.093Z,50.92
2017-06-04T01:40:06.157Z,50.46
2017-06-04T01:41:06.109Z,50.26
2017-06-04T01:42:05.807Z,49.99
2017-06-04T01:43:06.127Z,50.29
2017-06-04T01:44:06.138Z,50.48
2017-06-04T01:45:05.837Z,50.38
2017-06-04T01:46:06.153Z,50.36
2017-06-04T01:47:05.899Z,50.46
2017-06-04T01:48:06.219Z,50.07
2017-06-04T01:49:06.178Z,50.26
2017-06-04T01:50:06.187Z,50.58
2017-06-04T01:51:06.195Z,50.94
2017-06-04T01:52:05.893Z,51.33
2017-06-04T01:53:06.214Z,50.94
2017-06-04T01:54:06.223Z,50.84
2017-06-04T01:55:06.245Z,51.14
2017-06-04T01:56:06.239Z,50.74
2017-06-04T01:57:06.250Z,50.84
2017-06-04T01:58:06.255Z,51.23
2017-06-04T01:59:06.264Z,50.84
2017-06-04T02:00:06.273Z,50.74
2017-06-04T02:01:06.333Z,50.16
2017-06-04T02:02:06.290Z,50.48
2017-06-04T02:03:06.327Z,50.16
2017-06-04T02:04:06.308Z,50.56
2017-06-04T02:05:06.005Z,50.94
2017-06-04T02:06:06.377Z,50.46
2017-06-04T02:07:06.334Z,51.04
2017-06-04T02:08:06.343Z,51.04
2017-06-04T02:09:06.349Z,51.33
2017-06-04T02:10:06.360Z,50.84
2017-06-04T02:11:06.419Z,50.84
2017-06-04T02:12:06.381Z,50.74
2017-06-04T02:13:06.082Z,50.84
2017-06-04T02:14:06.134Z,51.14
2017-06-04T02:15:06.404Z,51.33
2017-06-04T02:16:06.100Z,51.23
2017-06-04T02:17:06.422Z,51.33
2017-06-04T02:18:06.429Z,51.23
2017-06-04T02:19:06.439Z,50.94
2017-06-04T02:20:06.497Z,51.43
2017-06-04T02:21:06.458Z,51.23
2017-06-04T02:22:06.465Z,51.14
2017-06-04T02:23:06.525Z,51.23
2017-06-04T02:24:06.169Z,51.91
2017-06-04T02:25:06.178Z,51.04
2017-06-04T02:26:06.549Z,50.26
2017-06-04T02:27:06.510Z,50.16
2017-06-04T02:28:06.514Z,50.36
2017-06-04T02:29:06.525Z,51.23
2017-06-04T02:30:06.220Z,50.94
2017-06-04T02:31:06.229Z,51.31
2017-06-04T02:32:06.554Z,51.23
2017-06-04T02:33:06.558Z,50.74
2017-06-04T02:34:06.566Z,50.26
2017-06-04T02:35:06.573Z,50.56
2017-06-04T02:36:06.582Z,50.26
2017-06-04T02:37:06.593Z,50.16
2017-06-04T02:38:06.338Z,49.77
2017-06-04T02:39:06.606Z,49.77
2017-06-04T02:40:06.665Z,49.58
2017-06-04T02:41:06.674Z,49.87
2017-06-04T02:42:06.681Z,49.71
2017-06-04T02:43:06.338Z,49.68
2017-06-04T02:44:06.702Z,50.16
2017-06-04T02:45:06.661Z,49.71
2017-06-04T02:46:06.669Z,49.61
2017-06-04T02:47:06.675Z,50.07
2017-06-04T02:48:06.688Z,49.87
2017-06-04T02:49:06.388Z,50.07
2017-06-04T02:50:06.418Z,50.07
2017-06-04T02:51:06.412Z,49.58
2017-06-04T02:52:06.724Z,49.9
2017-06-04T02:53:06.432Z,49.61
2017-06-04T02:54:06.741Z,49.77
2017-06-04T02:55:06.752Z,49.49
2017-06-04T02:56:06.764Z,49.87
2017-06-04T02:57:06.768Z,49.8
2017-06-04T02:58:06.776Z,49.02
2017-06-04T02:59:06.789Z,49.8
2017-06-04T03:00:06.486Z,49.58
2017-06-04T03:01:06.857Z,49.58
2017-06-04T03:02:06.826Z,49.87
2017-06-04T03:03:06.826Z,49.97
2017-06-04T03:04:06.835Z,49.58
2017-06-04T03:05:06.533Z,49.49
2017-06-04T03:06:06.851Z,49.87
2017-06-04T03:07:06.892Z,50.07
2017-06-04T03:08:06.869Z,49.87
2017-06-04T03:09:06.878Z,49.68
2017-06-04T03:10:06.889Z,49.19
2017-06-04T03:11:06.638Z,49.71
2017-06-04T03:12:06.907Z,49.68
2017-06-04T03:13:06.964Z,49.97
2017-06-04T03:14:06.932Z,49.58
2017-06-04T03:15:06.937Z,49.77
2017-06-04T03:16:06.948Z,50.07
2017-06-04T03:17:06.951Z,49.97
2017-06-04T03:18:06.959Z,49.68
2017-06-04T03:19:06.969Z,49.87
2017-06-04T03:20:06.689Z,49.58
2017-06-04T03:21:06.990Z,49.22
2017-06-04T03:22:06.688Z,49.1
2017-06-04T03:23:07.005Z,48.8
2017-06-04T03:24:06.709Z,49.19
2017-06-04T03:25:07.024Z,49.61
2017-06-04T03:26:07.083Z,49.97
2017-06-04T03:27:07.041Z,49.68
2017-06-04T03:28:06.739Z,49.58
2017-06-04T03:29:07.060Z,49.19
2017-06-04T03:30:06.808Z,49.1
2017-06-04T03:31:06.769Z,49.77
2017-06-04T03:32:07.386Z,49.39
2017-06-04T03:33:07.095Z,49.02
2017-06-04T03:34:07.106Z,48.83
2017-06-04T03:35:06.803Z,48.93
2017-06-04T03:36:07.174Z,49.1
2017-06-04T03:37:07.183Z,49.39
2017-06-04T03:38:06.880Z,49.22
2017-06-04T03:39:06.840Z,48.93
2017-06-04T03:40:07.161Z,48.83
2017-06-04T03:41:07.171Z,49.29
2017-06-04T03:42:07.178Z,49.19
2017-06-04T03:43:07.188Z,49.19
2017-06-04T03:44:07.197Z,49.49
2017-06-04T03:45:06.943Z,49.19
2017-06-04T03:46:07.217Z,48.73
2017-06-04T03:47:06.960Z,48.73
2017-06-04T03:48:07.229Z,48.93
2017-06-04T03:49:07.241Z,49.22
2017-06-04T03:50:07.299Z,49.39
2017-06-04T03:51:07.255Z,49.41
2017-06-04T03:52:07.319Z,49.12
2017-06-04T03:53:07.275Z,48.8
2017-06-04T03:54:07.287Z,48.9
2017-06-04T03:55:06.983Z,48.9
2017-06-04T03:56:07.306Z,49.12
2017-06-04T03:57:07.315Z,49.32
2017-06-04T03:58:07.329Z,49.29
2017-06-04T03:59:07.331Z,49
2017-06-04T04:00:07.337Z,49.22
2017-06-04T04:01:07.350Z,49.1
2017-06-04T04:02:07.357Z,49.19
2017-06-04T04:03:07.364Z,49.02
2017-06-04T04:04:07.378Z,49.02
2017-06-04T04:05:07.387Z,49.19
2017-06-04T04:06:07.085Z,48.73
2017-06-04T04:07:07.703Z,49.58
2017-06-04T04:08:07.101Z,49.32
2017-06-04T04:09:07.111Z,49.49
2017-06-04T04:10:07.429Z,49
2017-06-04T04:11:07.441Z,49.87
2017-06-04T04:12:07.449Z,49.68
2017-06-04T04:13:07.462Z,49.87
2017-06-04T04:14:07.524Z,49.68
2017-06-04T04:15:07.479Z,49.58
2017-06-04T04:16:07.483Z,50.07
2017-06-04T04:17:07.495Z,49.1
2017-06-04T04:18:07.193Z,49.61
2017-06-04T04:19:07.511Z,49.87
2017-06-04T04:20:07.525Z,49.49
2017-06-04T04:21:07.530Z,50.07
2017-06-04T04:22:07.590Z,48.93
2017-06-04T04:23:07.547Z,50.19
2017-06-04T04:24:07.610Z,49.58
2017-06-04T04:25:07.567Z,49.87
2017-06-04T04:26:07.573Z,49.41
2017-06-04T04:27:07.323Z,49.61
2017-06-04T04:28:07.281Z,49.58
2017-06-04T04:29:07.604Z,49.68
2017-06-04T04:30:07.660Z,49.68
2017-06-04T04:31:07.309Z,49.68
2017-06-04T04:32:07.677Z,49.87
2017-06-04T04:33:07.635Z,49.87
2017-06-04T04:34:07.333Z,49.39
2017-06-04T04:35:07.704Z,49.02
2017-06-04T04:36:07.664Z,49.87
2017-06-04T04:37:07.670Z,49.49
2017-06-04T04:38:07.420Z,49.87
2017-06-04T04:39:07.689Z,49.51
2017-06-04T04:40:07.698Z,49.71
2017-06-04T04:41:07.396Z,48.9
2017-06-04T04:42:07.716Z,49.9
2017-06-04T04:43:07.726Z,50.56
2017-06-04T04:44:07.425Z,49.87
2017-06-04T04:45:07.800Z,50.16
2017-06-04T04:46:07.802Z,49.58
2017-06-04T04:47:07.813Z,49.39
2017-06-04T04:48:07.769Z,49.9
2017-06-04T04:49:07.784Z,49.77
2017-06-04T04:50:07.789Z,50.09
2017-06-04T04:51:07.798Z,49.77
2017-06-04T04:52:07.804Z,50.07
2017-06-04T04:53:07.863Z,50.74
2017-06-04T04:54:07.511Z,50.26
2017-06-04T04:55:07.832Z,49.58
2017-06-04T04:56:07.842Z,49.49
2017-06-04T04:57:07.541Z,49.61
2017-06-04T04:58:07.855Z,49.61
2017-06-04T04:59:07.612Z,49.8
2017-06-04T05:00:07.873Z,50.19
2017-06-04T05:01:07.889Z,49.61
2017-06-04T05:02:07.893Z,49.77
2017-06-04T05:03:07.590Z,50.65
2017-06-04T05:04:07.906Z,49.87
2017-06-04T05:05:07.919Z,49.97
2017-06-04T05:06:07.928Z,49.39
2017-06-04T05:07:07.936Z,49.71
2017-06-04T05:08:07.949Z,49.61
2017-06-04T05:09:07.956Z,49.99
2017-06-04T05:10:07.965Z,49.77
2017-06-04T05:11:07.710Z,49.97
2017-06-04T05:12:07.670Z,49.51
2017-06-04T05:13:07.989Z,50.16
2017-06-04T05:14:07.999Z,49.87
2017-06-04T05:15:07.697Z,49.49
2017-06-04T05:16:08.015Z,49.61
2017-06-04T05:17:08.025Z,49.68
2017-06-04T05:18:08.034Z,49.61
2017-06-04T05:19:08.092Z,49.97
2017-06-04T05:20:08.053Z,50.07
2017-06-04T05:21:08.360Z,49.87
2017-06-04T05:22:08.125Z,50.07
2017-06-04T05:23:08.379Z,49.97
2017-06-04T05:24:08.092Z,50.16
2017-06-04T05:25:08.094Z,50.24
2017-06-04T05:26:08.103Z,50.46
2017-06-04T05:27:08.110Z,50.26
2017-06-04T05:28:08.119Z,49.68
2017-06-04T05:29:08.179Z,49.68
2017-06-04T05:30:08.136Z,50.07
2017-06-04T05:31:07.834Z,49.58
2017-06-04T05:32:08.152Z,49.99
2017-06-04T05:33:08.162Z,50.07
2017-06-04T05:34:08.170Z,49.58
2017-06-04T05:35:08.225Z,49.87
2017-06-04T05:36:08.189Z,49.68
2017-06-04T05:37:08.194Z,49.9
2017-06-04T05:38:08.202Z,50.46
2017-06-04T05:39:08.211Z,49.77
2017-06-04T05:40:08.232Z,49.87
2017-06-04T05:41:08.278Z,49.77
2017-06-04T05:42:08.233Z,49.19
2017-06-04T05:43:08.254Z,49.51
2017-06-04T05:44:08.256Z,50.09
2017-06-04T05:45:08.263Z,49.19
2017-06-04T05:46:08.269Z,49.02
2017-06-04T05:47:07.965Z,49.41
2017-06-04T05:48:08.288Z,49.22
2017-06-04T05:49:07.983Z,49.58
2017-06-04T05:50:08.356Z,49.58
2017-06-04T05:51:08.313Z,49.58
2017-06-04T05:52:08.320Z,49.22
2017-06-04T05:53:08.329Z,49.58
2017-06-04T05:54:08.389Z,48.8
2017-06-04T05:55:08.347Z,49.02
2017-06-04T05:56:08.405Z,49.9
2017-06-04T05:57:08.364Z,49.19
2017-06-04T05:58:08.060Z,49
2017-06-04T05:59:08.377Z,48.83
2017-06-04T06:00:08.387Z,49.12
2017-06-04T06:01:08.396Z,49.51
2017-06-04T06:02:08.406Z,49.41
2017-06-04T06:03:08.413Z,49.41
2017-06-04T06:04:08.112Z,49.49
2017-06-04T06:05:08.431Z,49.32
2017-06-04T06:06:08.441Z,49.41
2017-06-04T06:07:08.139Z,48.8
2017-06-04T06:08:08.459Z,48.83
2017-06-04T06:09:08.156Z,48.73
2017-06-04T06:10:08.477Z,48.54
2017-06-04T06:11:08.173Z,49.49
2017-06-04T06:12:08.179Z,49.12
2017-06-04T06:13:08.501Z,48.54
2017-06-04T06:14:08.511Z,48.35
2017-06-04T06:15:08.549Z,48.54
2017-06-04T06:16:08.528Z,48.54
2017-06-04T06:17:08.536Z,48.8
2017-06-04T06:18:08.545Z,49.29
2017-06-04T06:19:08.557Z,48.54
2017-06-04T06:20:08.249Z,48.44
2017-06-04T06:21:08.622Z,48.35
2017-06-04T06:22:08.582Z,48.25
2017-06-04T06:23:08.640Z,47.47
2017-06-04T06:24:08.599Z,48.15
2017-06-04T06:25:08.606Z,48.25
2017-06-04T06:26:08.303Z,48.54
2017-06-04T06:27:08.627Z,48.15
2017-06-04T06:28:08.319Z,48.44
2017-06-04T06:29:08.642Z,48.05
2017-06-04T06:30:08.649Z,47.76
2017-06-04T06:31:08.657Z,48.32
2017-06-04T06:32:08.664Z,47.64
2017-06-04T06:33:08.675Z,47.28
2017-06-04T06:34:08.370Z,47.28
2017-06-04T06:35:08.740Z,47.28
2017-06-04T06:36:08.698Z,47.18
2017-06-04T06:37:08.706Z,46.79
2017-06-04T06:38:08.717Z,46.62
2017-06-04T06:39:08.728Z,46.42
2017-06-04T06:40:08.783Z,46.33
2017-06-04T06:41:08.740Z,46.52
2017-06-04T06:42:08.754Z,46.52
2017-06-04T06:43:08.758Z,46.23
2017-06-04T06:44:08.768Z,46.52
2017-06-04T06:45:08.466Z,47.08
2017-06-04T06:46:08.786Z,46.5
2017-06-04T06:47:08.843Z,46.52
2017-06-04T06:48:08.805Z,46.62
2017-06-04T06:49:08.813Z,46.04
2017-06-04T06:50:08.820Z,46.33
2017-06-04T06:51:08.831Z,46.5
2017-06-04T06:52:08.847Z,45.82
2017-06-04T06:53:08.534Z,45.55
2017-06-04T06:54:08.902Z,45.84
2017-06-04T06:55:08.606Z,45.94
2017-06-04T06:56:08.872Z,45.84
2017-06-04T06:57:08.883Z,45.07
2017-06-04T06:58:08.889Z,45.28
2017-06-04T06:59:08.903Z,45.38
2017-06-04T07:00:09.159Z,45.26
2017-06-04T07:01:08.608Z,45.26
2017-06-04T07:02:08.930Z,45.45
2017-06-04T07:03:08.936Z,45.36
2017-06-04T07:04:08.950Z,45.65
2017-06-04T07:05:08.956Z,45.34
2017-06-04T07:06:08.960Z,44.95
2017-06-04T07:07:08.975Z,45.45
2017-06-04T07:08:08.978Z,45.34
2017-06-04T07:09:08.986Z,45.75
2017-06-04T07:10:08.687Z,44.29
2017-06-04T07:11:08.697Z,43.24
2017-06-04T07:12:09.013Z,43.16
2017-06-04T07:13:09.054Z,43.58
2017-06-04T07:14:09.031Z,43.92
2017-06-04T07:15:09.041Z,42.49
2017-06-04T07:16:08.739Z,42.7
2017-06-04T07:17:09.059Z,42.53
2017-06-04T07:18:08.759Z,43.29
2017-06-04T07:19:09.078Z,44.04
2017-06-04T07:20:09.087Z,44.41
2017-06-04T07:21:09.094Z,44.89
2017-06-04T07:22:09.105Z,45.28
2017-06-04T07:23:09.111Z,44.87
2017-06-04T07:24:08.811Z,45.94
2017-06-04T07:25:09.181Z,45.65
2017-06-04T07:26:08.827Z,45.94
2017-06-04T07:27:08.836Z,45.94
2017-06-04T07:28:08.845Z,45.36
2017-06-04T07:29:09.165Z,45.26
2017-06-04T07:30:09.175Z,45.36
2017-06-04T07:31:09.181Z,45.17
2017-06-04T07:32:09.190Z,44.41
2017-06-04T07:33:08.891Z,45.18
2017-06-04T07:34:09.261Z,45.18
2017-06-04T07:35:08.904Z,45.09
2017-06-04T07:36:09.225Z,45.48
2017-06-04T07:37:09.235Z,45.75
2017-06-04T07:38:09.242Z,45.84
2017-06-04T07:39:09.250Z,45.62
2017-06-04T07:40:09.309Z,45.45
2017-06-04T07:41:09.266Z,45.75
2017-06-04T07:42:09.276Z,45.62
2017-06-04T07:43:09.336Z,45.45
2017-06-04T07:44:08.984Z,44.99
2017-06-04T07:45:09.302Z,42.95
2017-06-04T07:46:08.998Z,43.26
2017-06-04T07:47:09.006Z,40.85
2017-06-04T07:48:09.328Z,40.6
2017-06-04T07:49:09.024Z,40.25
2017-06-04T07:50:09.032Z,42.16
2017-06-04T07:51:09.354Z,43.58
2017-06-04T07:52:09.412Z,44.24
2017-06-04T07:53:09.420Z,44.12
2017-06-04T07:54:09.068Z,43.73
2017-06-04T07:55:09.388Z,43.34
2017-06-04T07:56:09.137Z,43.65
2017-06-04T07:57:09.143Z,44.99
2017-06-04T07:58:09.413Z,44.48
2017-06-04T07:59:09.422Z,44.31
2017-06-04T08:00:09.455Z,43.82
2017-06-04T08:01:09.440Z,42.97
2017-06-04T08:02:09.449Z,43.07
2017-06-04T08:03:09.507Z,42.87
2017-06-04T08:04:09.465Z,43.05
2017-06-04T08:05:09.210Z,42.58
2017-06-04T08:06:09.483Z,42.87
2017-06-04T08:07:09.488Z,43.16
2017-06-04T08:08:09.496Z,43.36
2017-06-04T08:09:09.508Z,43.24
2017-06-04T08:10:09.202Z,44.21
2017-06-04T08:11:09.209Z,44.48
2017-06-04T08:12:09.530Z,44
2017-06-04T08:13:09.226Z,44
2017-06-04T08:14:09.547Z,44.38
2017-06-04T08:16:09.566Z,44.02
2017-06-04T08:17:09.261Z,43.9
2017-06-04T08:18:09.627Z,43.73
2017-06-04T08:19:09.641Z,43.41
2017-06-04T08:21:09.603Z,42.78
2017-06-04T08:22:09.664Z,42.68
2017-06-04T08:23:09.620Z,42.49
2017-06-04T08:24:09.631Z,42.39
2017-06-04T08:25:09.330Z,42.97
2017-06-04T08:26:09.649Z,42.95
2017-06-04T08:27:09.716Z,42.58
2017-06-04T08:28:09.666Z,42.39
2017-06-04T08:30:09.686Z,42.66
2017-06-04T08:31:09.741Z,42.68
2017-06-04T08:32:09.754Z,42.95
2017-06-04T08:33:09.709Z,42.78
2017-06-04T08:34:09.720Z,42.68
2017-06-04T08:35:09.731Z,42.49
2017-06-04T08:36:09.738Z,41.71
2017-06-04T08:37:09.749Z,41.9
2017-06-04T08:38:09.444Z,42.68
2017-06-04T08:39:09.767Z,42.39
2017-06-04T08:40:10.073Z,42.58
2017-06-04T08:41:09.785Z,41.8
2017-06-04T08:42:09.795Z,42.58
2017-06-04T08:43:09.852Z,42.85
2017-06-04T08:44:09.806Z,42.46
2017-06-04T08:45:09.506Z,42.66
2017-06-04T08:46:24.398Z,42.66
2017-06-04T08:48:09.841Z,42.56
2017-06-04T08:49:24.424Z,42.95
2017-06-04T08:51:09.918Z,43.51
2017-06-04T08:52:09.875Z,43.32
2017-06-04T08:53:09.884Z,43.8
2017-06-04T08:54:09.892Z,44.46
2017-06-04T08:55:09.594Z,45.04
2017-06-04T08:56:24.530Z,45.24
2017-06-04T08:57:09.918Z,44.56
2017-06-04T08:58:09.927Z,44.37
2017-06-04T08:59:09.621Z,43.8
2017-06-04T09:00:09.627Z,43.51
2017-06-04T09:01:09.950Z,43.63
2017-06-04T09:02:24.527Z,44.48
2017-06-04T09:03:09.962Z,44.65
2017-06-04T09:04:09.971Z,43.9
2017-06-04T09:05:24.551Z,44.48
2017-06-04T09:08:10.004Z,43.71
2017-06-04T09:09:24.634Z,43.71
2017-06-04T09:10:09.709Z,43.51
2017-06-04T09:11:10.035Z,43.54
2017-06-04T09:12:10.041Z,43.41
2017-06-04T09:13:24.618Z,42.83
2017-06-04T09:14:10.054Z,43.34
2017-06-04T09:15:10.063Z,43.22
2017-06-04T09:16:24.644Z,44.29
2017-06-04T09:17:10.076Z,43.51
2017-06-04T09:18:10.136Z,43.41
2017-06-04T09:19:10.146Z,44.19
2017-06-04T09:20:09.793Z,44.29
2017-06-04T09:22:10.120Z,43.32
2017-06-04T09:26:09.845Z,43.02
2017-06-04T09:27:10.160Z,42.46
2017-06-04T09:28:24.745Z,42.46
2017-06-04T09:29:10.178Z,42.46
2017-06-04T09:30:10.189Z,41.69
2017-06-04T09:31:24.768Z,42.66
2017-06-04T09:32:10.208Z,42.85
2017-06-04T09:35:24.802Z,42.66
2017-06-04T09:36:09.927Z,42.56
2017-06-04T09:37:10.249Z,43.05
2017-06-04T09:38:10.305Z,42.93
2017-06-04T09:39:10.264Z,42.35
2017-06-04T09:40:10.275Z,43.02
2017-06-04T09:41:24.854Z,42.64
2017-06-04T09:42:24.862Z,42.54
2017-06-04T09:43:10.352Z,41.88
2017-06-04T09:44:10.357Z,42.64
2017-06-04T09:45:10.316Z,41.67
2017-06-04T09:46:10.012Z,41.67
2017-06-04T09:47:10.384Z,42.35
2017-06-04T09:49:10.400Z,41.77
2017-06-04T09:50:24.931Z,41.57
2017-06-04T09:51:10.054Z,41.18
2017-06-04T09:52:10.376Z,41.57
2017-06-04T09:54:10.391Z,41.49
2017-06-04T09:55:10.400Z,41.2
2017-06-04T09:56:10.098Z,41.39
2017-06-04T09:57:10.418Z,40.91
2017-06-04T09:58:24.998Z,40.33
2017-06-04T09:59:10.431Z,40.03
2017-06-04T10:00:10.181Z,39.84
2017-06-04T10:02:25.033Z,40.23
2017-06-04T10:03:10.467Z,40.03
2017-06-04T10:04:10.475Z,39.94
2017-06-04T10:05:25.056Z,40.23
2017-06-04T10:06:10.494Z,40.52
2017-06-04T10:07:10.508Z,40.03
2017-06-04T10:08:25.080Z,40.21
2017-06-04T10:09:25.089Z,40.33
2017-06-04T10:10:10.573Z,39.94
2017-06-04T10:11:10.536Z,39.94
2017-06-04T10:12:10.541Z,39.94
2017-06-04T10:14:25.132Z,39.75
2017-06-04T10:16:25.198Z,40.13
2017-06-04T10:18:10.593Z,39.28
2017-06-04T10:20:10.299Z,40.03
2017-06-04T10:21:10.307Z,40.23
2017-06-04T10:22:25.199Z,39.36
2017-06-04T10:23:10.640Z,39.45
2017-06-04T10:24:10.644Z,38.87
2017-06-04T10:25:10.656Z,38.96
2017-06-04T10:26:10.350Z,38.48
2017-06-04T10:27:10.409Z,37.99
2017-06-04T10:29:10.739Z,38.57
2017-06-04T10:30:10.696Z,39.06
2017-06-04T10:31:10.705Z,38.39
2017-06-04T10:32:10.715Z,38.87
2017-06-04T10:33:10.412Z,38.19
2017-06-04T10:34:10.419Z,38.29
2017-06-04T10:35:25.314Z,38.19
2017-06-04T10:36:10.751Z,38.31
2017-06-04T10:40:10.784Z,37.99
2017-06-04T10:41:10.794Z,38.29
2017-06-04T10:42:10.492Z,38.19
2017-06-04T10:44:10.513Z,37.62
2017-06-04T10:45:10.877Z,37.43
2017-06-04T10:46:10.889Z,37.43
2017-06-04T10:47:25.422Z,38.09
2017-06-04T10:49:10.552Z,38.57
2017-06-04T10:51:10.881Z,37.51
2017-06-04T10:52:25.463Z,37.43
2017-06-04T10:53:10.898Z,37.6
2017-06-04T10:54:10.907Z,37.8
2017-06-04T10:55:10.963Z,38.09
2017-06-04T10:56:25.496Z,37.6
2017-06-04T10:58:10.992Z,37.82
2017-06-04T10:59:10.957Z,37.34
2017-06-04T11:00:11.020Z,37.04
2017-06-04T11:01:25.541Z,37.52
2017-06-04T11:02:10.975Z,37.52
2017-06-04T11:03:25.558Z,37.04
2017-06-04T11:04:25.568Z,37.04
2017-06-04T11:05:10.692Z,38.11
2017-06-04T11:06:25.586Z,37.72
2017-06-04T11:07:11.024Z,37.52
2017-06-04T11:08:11.029Z,36.94
2017-06-04T11:09:10.730Z,37.99
2017-06-04T11:10:11.047Z,37.7
2017-06-04T11:11:11.058Z,37.32
2017-06-04T11:12:11.114Z,36.83
2017-06-04T11:14:10.773Z,38.09
2017-06-04T11:15:11.142Z,37.41
2017-06-04T11:16:11.101Z,36.73
2017-06-04T11:17:25.681Z,37.22
2017-06-04T11:18:25.689Z,37.22
2017-06-04T11:20:11.134Z,37.02
2017-06-04T11:21:25.715Z,37.02
2017-06-04T11:22:11.156Z,36.83
2017-06-04T11:23:11.194Z,37.02
2017-06-04T11:24:25.741Z,36.93
2017-06-04T11:25:11.177Z,36.83
2017-06-04T11:26:10.874Z,36.93
2017-06-04T11:27:11.192Z,37.02
2017-06-04T11:28:11.018Z,35.88
2017-06-04T11:29:11.209Z,37.12
2017-06-04T11:30:11.219Z,37.41
2017-06-04T11:36:25.839Z,36.93
2017-06-04T11:38:11.333Z,37.41
2017-06-04T11:39:11.291Z,36.73
2017-06-04T11:40:11.306Z,36.93
2017-06-04T11:41:11.314Z,36.63
2017-06-04T11:44:25.909Z,36.65
2017-06-04T11:45:11.345Z,36.85
2017-06-04T11:46:11.352Z,37.04
2017-06-04T11:47:11.367Z,36.36
2017-06-04T11:48:11.059Z,36.65
2017-06-04T11:49:25.953Z,36.94
2017-06-04T11:50:11.075Z,37.34
2017-06-04T11:51:11.086Z,36.65
2017-06-04T11:52:11.404Z,36.75
2017-06-04T11:53:11.212Z,36.65
2017-06-04T11:54:11.427Z,36.75
2017-06-04T11:55:11.433Z,36.75
2017-06-04T11:56:11.131Z,37.52
2017-06-04T11:57:11.451Z,37.04
2017-06-04T11:58:11.198Z,36.55
2017-06-04T11:59:11.521Z,36.93
2017-06-04T12:00:11.477Z,37.22
2017-06-04T12:01:26.059Z,37.02
2017-06-04T12:02:26.068Z,37.51
2017-06-04T12:03:11.244Z,36.93
2017-06-04T12:04:11.562Z,37.02
2017-06-04T12:05:11.521Z,36.93
2017-06-04T12:06:11.220Z,37.12
2017-06-04T12:07:11.541Z,37.32
2017-06-04T12:10:11.563Z,37.32
2017-06-04T12:12:11.632Z,37.99
2017-06-04T12:13:26.162Z,37.22
2017-06-04T12:14:11.290Z,37.51
2017-06-04T12:16:11.619Z,37.32
2017-06-04T12:17:11.678Z,37.51
2017-06-04T12:18:11.320Z,37.99
2017-06-04T12:19:11.640Z,37.41
2017-06-04T12:20:11.649Z,37.41
2017-06-04T12:21:26.231Z,37.41
2017-06-04T12:22:26.240Z,37.12
2017-06-04T12:23:11.672Z,37.51
2017-06-04T12:24:11.683Z,37.8
2017-06-04T12:25:11.694Z,37.88
2017-06-04T12:26:11.731Z,37.7
2017-06-04T12:27:11.708Z,37.99
2017-06-04T12:28:11.716Z,37.7
2017-06-04T12:29:11.725Z,38.37
2017-06-04T12:30:11.733Z,37.68
2017-06-04T12:31:26.362Z,37.02
2017-06-04T12:32:11.798Z,37.41
2017-06-04T12:33:11.446Z,36.73
2017-06-04T12:34:11.771Z,37.99
2017-06-04T12:36:11.471Z,37.12
2017-06-04T12:37:11.848Z,36.63
2017-06-04T12:38:11.797Z,37.12
2017-06-04T12:39:11.809Z,36.44
2017-06-04T12:40:11.817Z,36.63
2017-06-04T12:41:11.513Z,36.63
2017-06-04T12:42:11.521Z,36.54
2017-06-04T12:43:11.528Z,35.88
2017-06-04T12:44:11.857Z,35.88
2017-06-04T12:45:26.434Z,36.55
2017-06-04T12:46:26.439Z,35.88
2017-06-04T12:48:11.576Z,36.93
2017-06-04T12:49:11.894Z,36.54
2017-06-04T12:50:11.898Z,36.55
2017-06-04T12:52:11.916Z,35.88
2017-06-04T12:53:11.926Z,36.83
2017-06-04T12:54:11.937Z,36.16
2017-06-04T12:55:26.515Z,36.73
2017-06-04T12:56:11.643Z,36.63
2017-06-04T12:57:26.533Z,36.44
2017-06-04T12:59:11.665Z,36.63
2017-06-04T13:00:11.677Z,36.63
2017-06-04T13:01:11.995Z,37.22
2017-06-04T13:02:11.999Z,37.41
2017-06-04T13:03:12.009Z,37.6
2017-06-04T13:05:12.059Z,37.68
2017-06-04T13:06:12.036Z,38.07
2017-06-04T13:07:26.664Z,37.98
2017-06-04T13:08:12.051Z,38.75
2017-06-04T13:09:26.630Z,38.93
2017-06-04T13:10:11.756Z,38.73
2017-06-04T13:11:12.072Z,38.93
2017-06-04T13:12:11.768Z,38.25
2017-06-04T13:13:12.086Z,37.98
2017-06-04T13:14:11.785Z,38.07
2017-06-04T13:15:12.107Z,37.88
2017-06-04T13:16:12.116Z,37.6
2017-06-04T13:17:12.124Z,37.59
2017-06-04T13:18:12.135Z,37.7
2017-06-04T13:19:12.137Z,37.02
2017-06-04T13:20:12.196Z,37.02
2017-06-04T13:21:12.154Z,36.73
2017-06-04T13:23:12.172Z,36.63
2017-06-04T13:24:12.179Z,36.73
2017-06-04T13:25:26.759Z,37.02
2017-06-04T13:26:26.768Z,36.81
2017-06-04T13:27:12.203Z,37.1
2017-06-04T13:28:12.215Z,36.93
2017-06-04T13:29:11.909Z,37.39
2017-06-04T13:30:12.234Z,36.54
2017-06-04T13:32:12.245Z,36.73
2017-06-04T13:33:12.253Z,36.63
2017-06-04T13:34:12.272Z,36.63
2017-06-04T13:35:12.323Z,36.63
2017-06-04T13:36:12.281Z,36.44
2017-06-04T13:37:26.861Z,36.83
2017-06-04T13:39:12.319Z,36.63
2017-06-04T13:41:12.320Z,36.24
2017-06-04T13:42:12.334Z,35.76
2017-06-04T13:43:12.029Z,36.07
2017-06-04T13:44:26.923Z,35.96
2017-06-04T13:45:12.052Z,36.55
2017-06-04T13:46:12.368Z,36.26